logo
App data

Rage Runner

This fast, fun and challenging sci-fi game is truly like no other 3D racer, it will make you cry JUST ONE MORE TRY! Race through beautiful procedurally generated 3D space-scapes or a set of 13 hand-crafted challenges that will put your skills to the test.
Store | Hub | SteamDB | Site
Developer: Hypercane Studios Publisher: Plug In Digital
Genre: Action, Casual, Indie, Racing, Simulation
Languages: English, French, Dutch, Japanese
Tags: Racing (26), Action (23), Indie (23), Casual (22), Simulation (20), Sci-fi (6)
Category: Single-player, Steam Achievements, Full controller support, Steam Trading Cards, Steam Workshop, Stats, Steam Leaderboards, Includes level editor
Release date: May 16, 2014
Price: $4.99
Owners: 0 .. 20,000
Followers: 161
Peak concurrent players yesterday: 1
YouTube stats: 8,269 views and 107 comments for top 50 videos uploaded last week, 4 new videos uploaded yesterday.
Playtime total: 02:11 (average) 02:11 (median)

Steam Spy is still in beta, so expect major bugs.

Owners data:

Access restricted.

This feature is only available to users with special access rights. Sorry.

If you want to proceed, you need to register or log in first and then back Steam Spy on Patreon. Look for Indie or Pro pledge.

Don't forget to use the same email as on Steam Spy!

If you've recently backed Steam Spy on Patreon, please note, that it might take around 15 minutes for your access rights to sync. In most cases you'll need to re-login on Steam Spy too.

Audience in 2 weeks:

Access restricted.

This feature is only available to users with special access rights. Sorry.

If you want to proceed, you need to register or log in first and then back Steam Spy on Patreon. Look for Indie or Pro pledge.

Don't forget to use the same email as on Steam Spy!

If you've recently backed Steam Spy on Patreon, please note, that it might take around 15 minutes for your access rights to sync. In most cases you'll need to re-login on Steam Spy too.

Peak daily concurrent players:

CCU data courtesy of SteamDB. Used with permission.

Hourly concurrent players:

Daily Twitch stats:

Hourly Twitch stats:

Followers over time

Access restricted.

This feature is only available to users with special access rights. Sorry.

If you want to proceed, you need to register or log in first and then back Steam Spy on Patreon. Look for Indie or Pro pledge.

Don't forget to use the same email as on Steam Spy!

If you've recently backed Steam Spy on Patreon, please note, that it might take around 15 minutes for your access rights to sync. In most cases you'll need to re-login on Steam Spy too.

Views for top 50 videos on YouTube for this game:

Games similar to this one:

# Game Release date
Price
Score rank
(Userscore / Metascore)
Owners
Players
Playtime (Median)
1 Mind Games Mar 4, 2016 $1.49N/A (N/A)0 .. 20,0000%00:00 (00:00)
2 King's Guard TD Jun 8, 2016 $2.99N/A (N/A)100,000 .. 200,0000%00:00 (00:00)
3 Hyposphere May 5, 2016 $2.99N/A (N/A)200,000 .. 500,0000%00:00 (00:00)
4 Reptilian Rebellion Aug 7, 2016 $2.99N/A (N/A)50,000 .. 100,0000%00:00 (00:00)
5 One Last Chance Apr 7, 2016 $3.99N/A (N/A)20,000 .. 50,0000%00:00 (00:00)
6 Love in the Glen Jun 8, 2016 $5.99N/A (N/A)20,000 .. 50,0000%00:00 (00:00)
7 Melting Hearts: Our Love Will Grow 2 Apr 29, 2016 N/AN/A (N/A)20,000 .. 50,0000%00:00 (00:00)
8 Forgotten, Not Lost - A Kinetic Novel Apr 2, 2016 $1.99N/A (N/A)20,000 .. 50,0000%00:00 (00:00)
9 Burst Mar 14, 2016 N/AN/A (N/A)20,000 .. 50,0000%00:00 (00:00)
10 Hustle Cat Mar 16, 2016 $19.99N/A (N/A)50,000 .. 100,0000%00:00 (00:00)
11 Magma Tsunami Jun 1, 2016 $0.99N/A (N/A)200,000 .. 500,0000%00:00 (00:00)
12 Caravanserail Mar 10, 2016 $2.99N/A (N/A)0 .. 20,0000%00:00 (00:00)
13 Night Blights Apr 15, 2016 $6.99N/A (N/A)0 .. 20,0000%00:00 (00:00)
14 Sophie's Curse Mar 16, 2016 $4.99N/A (N/A)50,000 .. 100,0000%00:00 (00:00)
15 Broken Dreams Feb 19, 2016 $1.99N/A (N/A)500,000 .. 1,000,0000%00:00 (00:00)
16 BAD END Nov 25, 2015 $4.99N/A (N/A)20,000 .. 50,0000%00:00 (00:00)
17 Herding Dog Jan 15, 2016 $0.99N/A (N/A)0 .. 20,0000%00:00 (00:00)
18 The Last NightMary - A Lenda do Cabeça de Cuia Nov 2, 2015 $3.99N/A (N/A)50,000 .. 100,0000%00:00 (00:00)
19 Star Sky Oct 23, 2015 $3.99N/A (N/A)0 .. 20,0000%00:00 (00:00)
20 Kombine Oct 14, 2016 $0.99N/A (N/A)50,000 .. 100,0000%00:00 (00:00)
21 Think To Die 3 Mar 27, 2017 $4.99N/A (N/A)0 .. 20,0000%00:00 (00:00)
22 Darkarta: A Broken Heart's Quest Collector's Edition Mar 8, 2017 $9.99N/A (N/A)50,000 .. 100,0000%00:00 (00:00)
23 Dungeon Painter Studio Feb 26, 2017 $14.99N/A (N/A)50,000 .. 100,00028.57%04:59 (03:19)
24 Ninja Stealth 2 Jan 30, 2017 $0.99N/A (N/A)50,000 .. 100,0000%00:00 (00:00)
25 Winexy Jan 13, 2017 $4.99N/A (N/A)50,000 .. 100,0000%00:00 (00:00)
26 iREC Jan 16, 2017 $2.99N/A (N/A)100,000 .. 200,0000%00:00 (00:00)
27 Neon Prism Nov 18, 2016 $10.99N/A (N/A)50,000 .. 100,0000%00:00 (00:00)
28 The Survey Oct 27, 2016 $4.99N/A (N/A)20,000 .. 50,0000%00:00 (00:00)
29 GO AWAY, THERE'S KUMIS OVER THERE! Oct 28, 2016 $0.99N/A (N/A)50,000 .. 100,0000%00:00 (00:00)
30 Lift It Jan 20, 2017 $4.99N/A (N/A)50,000 .. 100,0000%00:00 (00:00)
31 Archimedes Oct 6, 2016 $1.99N/A (N/A)20,000 .. 50,0000%00:00 (00:00)
32 Turbo Pug 3D Sep 20, 2016 $0.99N/A (N/A)200,000 .. 500,0000%00:00 (00:00)
33 Carrie's Order Up! Sep 12, 2016 $2.99N/A (N/A)0 .. 20,0000%00:00 (00:00)
34 Football Blitz Jan 4, 2017 N/AN/A (N/A)0 .. 20,0000%00:00 (00:00)
35 Won't You Be My Laser? Sep 2, 2016 $0.99N/A (N/A)20,000 .. 50,0000%00:00 (00:00)
36 Clock Simulator Jul 20, 2016 N/AN/A (N/A)20,000 .. 50,0000%00:00 (00:00)
37 ConflictCraft Dec 8, 2016 $1.99N/A (N/A)100,000 .. 200,0000%00:00 (00:00)
38 Totally Unbalanced Jul 29, 2016 FreeN/A (N/A)50,000 .. 100,0000%00:00 (00:00)
39 Quantum Rush Champions Dec 4, 2014 $9.99N/A (N/A)20,000 .. 50,0000%00:00 (00:00)
40 Chip's Challenge 2 May 28, 2015 $4.99N/A (N/A)20,000 .. 50,0000%00:00 (00:00)
41 Racecraft Mar 4, 2016 FreeN/A (N/A)20,000 .. 50,0000%00:00 (00:00)
42 Streets of Chaos Jan 23, 2015 N/AN/A (N/A)100,000 .. 200,0000%00:00 (00:00)
43 Pixel Puzzles 2: Birds Feb 20, 2015 $4.99N/A (N/A)100,000 .. 200,0000%00:00 (00:00)
44 12 Labours of Hercules Mar 23, 2015 $2.99N/A (N/A)100,000 .. 200,0000%00:00 (00:00)
45 Marble Duel: Sphere-Matching Tactical Fantasy Nov 12, 2015 $14.99N/A (N/A)50,000 .. 100,0000%00:00 (00:00)
46 1931: Scheherazade at the Library of Pergamum Mar 26, 2015 $4.99N/A (N/A)0 .. 20,0000%00:00 (00:00)
47 The Jackbox Party Pack Nov 26, 2014 $24.99N/A (N/A)200,000 .. 500,0000%00:00 (00:00)
48 Sinister City Oct 18, 2014 $0.99N/A (N/A)100,000 .. 200,0000%00:00 (00:00)
49 Pester Aug 21, 2015 $0.99N/A (N/A)100,000 .. 200,0000%00:00 (00:00)
50 A Good Snowman Is Hard To Build Feb 25, 2015 $9.99N/A (N/A)50,000 .. 100,0000%00:00 (00:00)
51 Bloop Reloaded Feb 6, 2015 FreeN/A (N/A)100,000 .. 200,0000%00:00 (00:00)
52 Wildlife Park 2 - Dino World Mar 30, 2012 $3.99N/A (N/A)20,000 .. 50,0000%00:00 (00:00)
53 Cyto Jul 10, 2014 $3.99N/A (N/A)20,000 .. 50,0000%00:00 (00:00)
54 Tribloos 2 Jan 30, 2014 $4.99N/A (N/A)100,000 .. 200,0000%00:00 (00:00)
55 Grapple Mar 9, 2015 $6.99N/A (N/A)20,000 .. 50,0000%00:00 (00:00)
56 Girls Like Robots Feb 14, 2014 $6.99N/A (N/A)100,000 .. 200,0000%00:00 (00:00)
57 Oozi: Earth Adventure Dec 5, 2013 $4.99N/A (N/A/66%)20,000 .. 50,0000%00:00 (00:00)
58 Fate Tectonics Sep 9, 2015 $4.99N/A (N/A)20,000 .. 50,0000%00:00 (00:00)
59 Labyrinth Simulator Sep 21, 2015 $4.99N/A (N/A)0 .. 20,0000%00:00 (00:00)
60 Robot vs Birds Zombies Jul 23, 2015 $0.99N/A (N/A)500,000 .. 1,000,0000%00:00 (00:00)
61 In Between Aug 21, 2015 $11.99N/A (N/A/68%)50,000 .. 100,0000%00:00 (00:00)
62 Alpha Runner Sep 2, 2015 $0.99N/A (N/A)100,000 .. 200,0000%00:00 (00:00)
63 Wanda - A Beautiful Apocalypse Jun 3, 2016 $1.99N/A (N/A)100,000 .. 200,0000%00:00 (00:00)
64 Job the Leprechaun Jul 31, 2015 $2.99N/A (N/A)50,000 .. 100,0000%00:00 (00:00)
65 Star Chronicles: Delta Quadrant Jul 7, 2015 $0.99N/A (N/A)200,000 .. 500,0000%00:00 (00:00)
66 Koala Kids Jun 22, 2015 $1.99N/A (N/A)100,000 .. 200,0000%00:00 (00:00)
67 Axel & Pixel Oct 6, 2010 $4.99N/A (N/A)20,000 .. 50,0000%00:00 (00:00)
68 Space Drifters 2D Mar 28, 2016 $0.99N/A (N/A)20,000 .. 50,0000%00:00 (00:00)
69 Way of Gold and Steel Aug 17, 2015 $8.99N/A (N/A)20,000 .. 50,0000%00:00 (00:00)
70 Power of Love Jul 21, 2015 $0.49N/A (N/A)20,000 .. 50,0000%00:00 (00:00)
71 Cursed Sight Aug 3, 2015 $2.99N/A (N/A)20,000 .. 50,0000%00:00 (00:00)
72 The Reject Demon: Toko Chapter 0 — Prelude May 9, 2015 $4.99N/A (N/A)20,000 .. 50,0000%00:00 (00:00)
73 Earthtongue Apr 27, 2015 $4.99N/A (N/A)50,000 .. 100,0000%00:00 (00:00)
74 Alter World May 29, 2015 $1.99N/A (N/A)200,000 .. 500,0000%00:00 (00:00)
75 Drizzlepath Mar 12, 2015 $1.99N/A (N/A)20,000 .. 50,0000%00:00 (00:00)

Tags over time:

Access restricted.

This feature is only available to users with special access rights. Sorry.

If you want to proceed, you need to register or log in first and then back Steam Spy on Patreon. Look for Indie or Pro pledge.

Don't forget to use the same email as on Steam Spy!

If you've recently backed Steam Spy on Patreon, please note, that it might take around 15 minutes for your access rights to sync. In most cases you'll need to re-login on Steam Spy too.

Owners of this game also own:

Access restricted.

This feature is only available to users with special access rights. Sorry.

If you want to proceed, you need to register or log in first and then back Steam Spy on Patreon. Look for Indie or Pro pledge.

Don't forget to use the same email as on Steam Spy!

If you've recently backed Steam Spy on Patreon, please note, that it might take around 15 minutes for your access rights to sync. In most cases you'll need to re-login on Steam Spy too.

Playtime distribution:

Access restricted.

This feature is only available to users with special access rights. Sorry.

If you want to proceed, you need to register or log in first and then back Steam Spy on Patreon. Look for Indie or Pro pledge.

Don't forget to use the same email as on Steam Spy!

If you've recently backed Steam Spy on Patreon, please note, that it might take around 15 minutes for your access rights to sync. In most cases you'll need to re-login on Steam Spy too.

Playtime (2 weeks):

Access restricted.

This feature is only available to users with special access rights. Sorry.

If you want to proceed, you need to register or log in first and then back Steam Spy on Patreon. Look for Indie or Pro pledge.

Don't forget to use the same email as on Steam Spy!

If you've recently backed Steam Spy on Patreon, please note, that it might take around 15 minutes for your access rights to sync. In most cases you'll need to re-login on Steam Spy too.

User reviews:

Login required.

Please register or log in to see this information.